»·PEaware :: JUS326 KSEA-KSEA

JUS326 :: KSEA-KSEA

FLIGHT INFORMATION

Flight Status: Arrived
Operator:
USA Jet
More flights by this operator :: More flights under this callsign
Pilot: Erik S. (3779)
Aircraft: BOEING 737-300
(B733)
More flights by this aircraft type
Origin: KSEA Seattle-Tacoma Intl
United States
Destination: KSEA Seattle-Tacoma Intl
United States
More flights between these airports :: More routes between these airports
Route: +SEA6 OLM
File this flight plan on PilotEdge
Remarks: IFR APPROACHES, WX SET MINS
Altitude:
(Current/Filed)
8,000ft
Speed:
(Current/Filed)
250kts
Departed: 26-Mar-18 09:32 AM
Arrived: 26-Mar-18 10:38 AM
Distance/Time
Traveled:
0nm/1:06
Distance/Time
To Go:
Arrived

Flight Plot

Page will automatically refresh every two minutes.

Flight plan parsing failed; only flown route is shown


Map Options




Map Legend


Flown Route
Filed Route
Departure Airport
Arrival Airport
Navaid (VOR, NDB)
Fix

Horizontal Profiles

Position Reports

Time Latitude Longitude Heading Altitude Ground
Speed
26-Mar-18 09:22 47.462543 -122.298069 359 440ft 0kts
26-Mar-18 09:23 47.462543 -122.298069 359 440ft 0kts
26-Mar-18 09:24 47.462363 -122.298401 154 440ft 0kts
26-Mar-18 09:25 47.462199 -122.298241 138 440ft 0kts
26-Mar-18 09:26 47.462390 -122.298266 268 440ft 10kts
26-Mar-18 09:27 47.461654 -122.303216 269 440ft 18kts
26-Mar-18 09:28 47.464091 -122.306060 245 440ft 0kts
26-Mar-18 09:29 47.464091 -122.306060 245 440ft 0kts
26-Mar-18 09:30 47.464033 -122.306248 245 440ft 3kts
26-Mar-18 09:31 47.456277 -122.307759 180 440ft 126kts
26-Mar-18 09:32 47.403931 -122.309591 176 3174ft 232kts
26-Mar-18 09:33 47.339072 -122.310288 179 6192ft 261kts
26-Mar-18 09:34 47.268965 -122.306369 167 6157ft 241kts
26-Mar-18 09:35 47.242232 -122.229068 64 6060ft 242kts
26-Mar-18 09:36 47.301882 -122.198541 1 6340ft 239kts
26-Mar-18 09:37 47.370183 -122.189519 4 6486ft 254kts
26-Mar-18 09:38 47.441413 -122.176275 5 6331ft 256kts
26-Mar-18 09:39 47.510128 -122.164215 3 6282ft 240kts
26-Mar-18 09:40 47.572065 -122.166694 353 5330ft 224kts
26-Mar-18 09:41 47.633012 -122.173444 336 4312ft 209kts
26-Mar-18 09:42 47.655942 -122.244303 275 4357ft 203kts
26-Mar-18 09:43 47.632993 -122.302679 191 3674ft 161kts
26-Mar-18 09:44 47.592407 -122.306304 179 3399ft 152kts
26-Mar-18 09:45 47.552460 -122.306815 179 2646ft 134kts
26-Mar-18 09:46 47.515212 -122.307293 182 1760ft 134kts
26-Mar-18 09:47 47.477139 -122.307908 184 1331ft 137kts
26-Mar-18 09:48 47.435905 -122.310670 194 2159ft 161kts
26-Mar-18 09:49 47.384693 -122.311940 181 2737ft 187kts
26-Mar-18 09:50 47.329218 -122.315405 177 5880ft 202kts
26-Mar-18 09:51 47.269204 -122.305344 181 6479ft 228kts
26-Mar-18 09:52 47.203763 -122.306524 180 6382ft 234kts
26-Mar-18 09:53 47.150670 -122.267194 103 6342ft 245kts
26-Mar-18 09:54 47.192132 -122.206921 340 6250ft 238kts
26-Mar-18 09:55 47.232014 -122.272581 316 6315ft 225kts
26-Mar-18 09:56 47.291018 -122.276006 50 6278ft 240kts
26-Mar-18 09:57 47.276488 -122.198952 163 6319ft 219kts
26-Mar-18 10:18 47.016202 -122.906055 48 6212ft 255kts
26-Mar-18 10:19 47.063949 -122.827349 51 6345ft 258kts
26-Mar-18 10:20 47.112850 -122.748048 48 6306ft 264kts
26-Mar-18 10:21 47.163337 -122.667135 48 6277ft 287kts
26-Mar-18 10:22 47.217484 -122.580008 48 6318ft 290kts
26-Mar-18 10:23 47.271796 -122.492213 48 6319ft 290kts
26-Mar-18 10:24 47.336992 -122.430831 5 6325ft 289kts
26-Mar-18 10:25 47.417233 -122.415795 5 5219ft 289kts
26-Mar-18 10:26 47.495554 -122.402725 5 5006ft 284kts
26-Mar-18 10:27 47.573734 -122.393771 355 4744ft 286kts
26-Mar-18 10:28 47.651197 -122.400893 355 3977ft 270kts
26-Mar-18 10:29 47.713147 -122.381284 65 3991ft 229kts
26-Mar-18 10:30 47.690409 -122.316288 145 3999ft 192kts
26-Mar-18 10:31 47.642506 -122.303137 184 3998ft 157kts
26-Mar-18 10:32 47.606337 -122.306594 182 3219ft 117kts
26-Mar-18 10:33 47.573593 -122.307009 179 2623ft 117kts
26-Mar-18 10:34 47.540728 -122.307208 179 1998ft 119kts
26-Mar-18 10:35 47.508040 -122.307386 178 1343ft 117kts
26-Mar-18 10:36 47.475967 -122.307674 178 721ft 116kts
26-Mar-18 10:37 47.452666 -122.307492 135 440ft 25kts

Navigation Log

Ident Type
Flight plan parsing failed, navigation log unavailable